Time;durP1;ratioP1;P1;durP2;ratioP2;P2;SDS_P1;SDS_P2;PMS_P1;PMS_P2;Temp;Humidity;BMP_temperature;BMP_pressure;BME280_temperature;BME280_humidity;BME280_pressure;Samples;Min_cycle;Max_cycle;Signal;HPM_P1;HPM_P2
2022/07/25 00:01:18;;;;;;;;;;;;;;;22.61;50.06;97890.84;4998689;28;19921;-78
2022/07/25 00:03:47;;;;;;;;;;;;;;;22.57;49.89;97890.03;4998809;28;20347;-78
2022/07/25 00:06:15;;;;;;;;;;;;;;;22.59;49.77;97888.47;4984062;28;19925;-78
2022/07/25 00:08:44;;;;;;;;;;;;;;;22.53;50.30;97886.44;5006346;28;19926;-78
2022/07/25 00:11:12;;;;;;;;;;;;;;;22.51;50.10;97886.06;5004197;28;20354;-78
2022/07/25 00:13:40;;;;;;;;;;;;;;;22.53;50.49;97883.69;5007008;28;19928;-78
2022/07/25 00:16:11;;;;;;;;;;;;;;;22.32;51.54;97885.22;5009949;28;19921;-78
2022/07/25 00:18:39;;;;;;;;;;;;;;;22.36;50.77;97885.22;5011215;28;19921;-78
2022/07/25 00:21:10;;;;;;;;;;;;;;;22.30;51.33;97884.81;4991688;28;19921;-78
2022/07/25 00:23:39;;;;;;;;;;;;;;;22.24;51.15;97886.38;5002155;28;20347;-79
2022/07/25 00:26:13;;;;;;;;;;;;;;;22.25;50.99;97885.19;5005066;28;20020;-79
2022/07/25 00:28:41;;;;;;;;;;;;;;;22.32;50.60;97882.47;4980383;28;19926;-78
2022/07/25 00:31:13;;;;;;;;;;;;;;;22.28;51.33;97884.41;4998156;28;19952;-78
2022/07/25 00:36:34;;;;;;;;;;;;;;;22.25;51.39;97882.41;4999645;28;19953;-78
2022/07/25 00:39:02;;;;;;;;;;;;;;;22.23;51.10;97882.00;5000444;28;19928;-79
2022/07/25 00:41:30;;;;;;;;;;;;;;;22.23;50.83;97876.47;5005673;28;19928;-78
2022/07/25 00:43:58;;;;;;;;;;;;;;;22.30;50.31;97870.16;5004239;28;20334;-78
2022/07/25 00:46:27;;;;;;;;;;;;;;;22.30;50.62;97870.97;4995102;28;20040;-79
2022/07/25 00:48:55;;;;;;;;;;;;;;;22.19;51.03;97879.22;5003729;28;19933;-78
2022/07/25 00:51:23;;;;;;;;;;;;;;;22.17;50.75;97878.84;4989176;28;19928;-80
2022/07/25 00:53:51;;;;;;;;;;;;;;;22.18;50.59;97874.09;4999004;28;19927;-79
2022/07/25 00:56:19;;;;;;;;;;;;;;;22.10;51.35;97872.44;5006397;28;19976;-79
2022/07/25 00:58:47;;;;;;;;;;;;;;;22.01;51.77;97863.72;5017266;28;19967;-79
2022/07/25 01:01:15;;;;;;;;;;;;;;;22.02;51.29;97859.75;5026107;28;19978;-79
2022/07/25 01:03:44;;;;;;;;;;;;;;;22.06;51.40;97858.59;5026257;28;19936;-78
2022/07/25 01:06:12;;;;;;;;;;;;;;;21.97;51.54;97860.91;4998019;28;19952;-79
2022/07/25 01:08:40;;;;;;;;;;;;;;;21.92;51.72;97864.84;5014225;28;19928;-78
2022/07/25 01:11:11;;;;;;;;;;;;;;;21.93;51.81;97862.88;4997155;28;19976;-79
2022/07/25 01:13:39;;;;;;;;;;;;;;;21.87;52.04;97858.88;5029778;28;19975;-77
2022/07/25 01:16:10;;;;;;;;;;;;;;;21.90;51.54;97858.13;5029834;28;20376;-78
2022/07/25 01:18:38;;;;;;;;;;;;;;;21.79;52.07;97860.84;5029216;28;20016;-78
2022/07/25 01:21:13;;;;;;;;;;;;;;;21.81;51.82;97855.69;5017639;28;20425;-78
2022/07/25 01:23:41;;;;;;;;;;;;;;;21.87;51.56;97851.38;5014202;28;19920;-78
2022/07/25 01:26:12;;;;;;;;;;;;;;;21.82;51.52;97850.97;5020972;28;19920;-79
2022/07/25 01:28:40;;;;;;;;;;;;;;;21.80;51.80;97850.56;5021973;28;19921;-78
2022/07/25 01:31:10;;;;;;;;;;;;;;;21.79;51.75;97846.22;5014188;28;20383;-78
2022/07/25 01:33:40;;;;;;;;;;;;;;;21.87;51.72;97843.09;4995018;28;20297;-79
2022/07/25 01:36:34;;;;;;;;;;;;;;;21.80;51.84;97837.53;5015972;28;20368;-78
2022/07/25 01:39:03;;;;;;;;;;;;;;;21.75;52.00;97832.38;5032116;28;19979;-79
2022/07/25 01:41:31;;;;;;;;;;;;;;;21.74;51.99;97830.00;5010961;28;19926;-79
2022/07/25 01:43:59;;;;;;;;;;;;;;;21.74;51.97;97827.22;5022944;28;20391;-78
2022/07/25 01:46:27;;;;;;;;;;;;;;;21.79;51.93;97826.84;4995706;28;19992;-79
2022/07/25 01:48:55;;;;;;;;;;;;;;;21.71;51.96;97824.03;5023818;28;20015;-78
2022/07/25 01:51:22;;;;;;;;;;;;;;;21.75;51.52;97824.06;5011483;28;19933;-78
2022/07/25 01:53:51;;;;;;;;;;;;;;;21.77;51.66;97826.44;5019804;28;20410;-78
2022/07/25 01:56:19;;;;;;;;;;;;;;;21.81;51.67;97828.03;5017167;28;20019;-78
2022/07/25 01:58:47;;;;;;;;;;;;;;;21.85;51.96;97828.84;5024437;28;19947;-78
2022/07/25 02:01:15;;;;;;;;;;;;;;;21.75;51.77;97821.31;5012612;28;19991;-78
2022/07/25 02:03:43;;;;;;;;;;;;;;;21.69;52.36;97822.84;5014733;28;20384;-78
2022/07/25 02:06:11;;;;;;;;;;;;;;;21.65;52.36;97825.59;5017229;28;19926;-78
2022/07/25 02:08:39;;;;;;;;;;;;;;;21.75;51.67;97826.84;5024286;28;20406;-78
2022/07/25 02:11:11;;;;;;;;;;;;;;;21.67;51.76;97822.44;5019431;28;19967;-78
2022/07/25 02:13:39;;;;;;;;;;;;;;;21.65;52.16;97819.28;5021491;28;19925;-78
2022/07/25 02:16:10;;;;;;;;;;;;;;;21.66;51.89;97818.09;5028684;28;19933;-79
2022/07/25 02:18:38;;;;;;;;;;;;;;;21.67;52.09;97814.13;5029577;28;20020;-78
2022/07/25 02:21:13;;;;;;;;;;;;;;;21.65;52.19;97813.75;5021981;28;20019;-78
2022/07/25 02:23:43;;;;;;;;;;;;;;;21.61;52.06;97813.72;5021308;28;19925;-79
2022/07/25 02:26:13;;;;;;;;;;;;;;;21.56;52.14;97816.84;5010410;28;19979;-79
2022/07/25 02:28:41;;;;;;;;;;;;;;;21.57;52.15;97817.63;4987839;28;19926;-78
2022/07/25 02:31:09;;;;;;;;;;;;;;;21.55;52.05;97814.47;4995811;28;19975;-79
2022/07/25 02:33:38;;;;;;;;;;;;;;;21.51;52.40;97816.41;5001915;28;20489;-78
2022/07/25 02:36:09;;;;;;;;;;;;;;;21.42;52.63;97812.03;5027341;28;19961;-78
2022/07/25 02:38:38;;;;;;;;;;;;;;;21.37;52.61;97812.41;5000771;28;19929;-79
2022/07/25 02:41:10;;;;;;;;;;;;;;;21.41;52.46;97816.00;5005755;28;20435;-80
2022/07/25 02:43:39;;;;;;;;;;;;;;;21.43;52.40;97819.16;5007956;28;20292;-80
2022/07/25 02:46:11;;;;;;;;;;;;;;;21.42;52.34;97820.31;5020637;28;19979;-79
2022/07/25 02:48:39;;;;;;;;;;;;;;;21.36;52.87;97816.34;5011272;28;19971;-79
2022/07/25 02:51:10;;;;;;;;;;;;;;;21.47;52.08;97818.38;5004596;28;20014;-78
2022/07/25 02:53:38;;;;;;;;;;;;;;;21.47;52.41;97818.38;5023813;28;19979;-78
2022/07/25 02:56:23;;;;;;;;;;;;;;;21.38;52.63;97819.50;5017531;28;19926;-78
2022/07/25 02:58:53;;;;;;;;;;;;;;;21.29;53.38;97816.25;5011598;28;19925;-78
2022/07/25 03:01:20;;;;;;;;;;;;;;;21.37;52.33;97820.69;4986939;28;19929;-79
2022/07/25 03:03:48;;;;;;;;;;;;;;;21.34;52.74;97818.69;5014241;28;19932;-78
2022/07/25 03:06:17;;;;;;;;;;;;;;;21.29;52.79;97824.53;5030464;28;19937;-78
2022/07/25 03:08:44;;;;;;;;;;;;;;;21.21;53.26;97816.59;5027485;28;19926;-78
2022/07/25 03:11:13;;;;;;;;;;;;;;;21.15;53.46;97824.44;5026332;28;19932;-79
2022/07/25 03:13:40;;;;;;;;;;;;;;;21.15;53.34;97821.69;5023910;28;19925;-78
2022/07/25 03:16:12;;;;;;;11.40;7.60;;;;;;;21.20;52.84;97821.34;5007074;28;20924;-79
2022/07/25 03:18:40;;;;;;;10.90;7.07;;;;;;;21.23;53.07;97814.22;5025177;28;20411;-78
2022/07/25 03:21:12;;;;;;;10.63;7.20;;;;;;;21.16;53.23;97814.97;5014180;28;20420;-78
2022/07/25 03:23:41;;;;;;;11.37;7.50;;;;;;;21.11;53.65;97818.09;5010200;28;20446;-79
2022/07/25 03:26:12;;;;;;;12.10;7.65;;;;;;;21.09;54.07;97810.22;5024491;28;20427;-79
2022/07/25 03:28:40;;;;;;;11.25;7.43;;;;;;;21.05;53.82;97808.59;5009025;28;20416;-80
2022/07/25 03:31:12;;;;;;;12.10;7.70;;;;;;;21.14;53.37;97807.06;5024694;28;20417;-80
2022/07/25 03:33:40;;;;;;;11.90;7.90;;;;;;;21.05;53.80;97801.09;4994555;28;20428;-79
2022/07/25 03:36:12;;;;;;;11.82;7.35;;;;;;;21.08;53.35;97796.75;4986290;28;20556;-79
2022/07/25 03:38:41;;;;;;;12.90;7.73;;;;;;;21.11;53.40;97798.75;5000810;28;20442;-78
2022/07/25 03:41:12;;;;;;;11.48;7.50;;;;;;;21.14;53.36;97795.22;4991590;28;20429;-79
2022/07/25 03:43:41;;;;;;;10.93;7.75;;;;;;;21.11;53.52;97796.78;4996803;28;20416;-78
2022/07/25 03:46:11;;;;;;;11.52;7.53;;;;;;;21.12;53.29;97794.81;5017702;28;20427;-79
2022/07/25 03:48:39;;;;;;;12.73;7.95;;;;;;;21.15;53.67;97794.06;5002105;28;20494;-79
2022/07/25 03:51:14;;;;;;;11.40;7.95;;;;;;;21.17;53.95;97784.19;5023906;28;20419;-78
2022/07/25 03:56:28;;;;;;;11.82;7.90;;;;;;;21.14;53.24;97776.66;5014055;28;20483;-79
2022/07/25 03:58:57;;;;;;;11.85;8.02;;;;;;;21.17;53.08;97772.38;5026269;28;20405;-78
2022/07/25 04:01:26;;;;;;;10.85;7.45;;;;;;;21.15;53.42;97774.72;4987211;28;20431;-78
2022/07/25 04:03:54;;;;;;;12.13;7.63;;;;;;;21.13;53.71;97768.78;4999721;28;20455;-79
2022/07/25 04:06:23;;;;;;;11.77;7.78;;;;;;;21.08;53.24;97772.69;5005840;28;20490;-78
2022/07/25 04:08:51;;;;;;;10.02;7.38;;;;;;;21.02;53.75;97778.97;4999036;28;20416;-79
2022/07/25 04:11:20;;;;;;;12.18;7.97;;;;;;;21.09;53.66;97771.53;5010364;28;20417;-79
2022/07/25 04:13:48;;;;;;;12.88;7.78;;;;;;;21.02;53.61;97777.00;4988144;28;20420;-79
2022/07/25 04:16:16;;;;;;;12.85;7.95;;;;;;;21.03;53.80;97777.78;5008614;28;20500;-79
2022/07/25 04:18:54;;;;;;;11.35;7.57;;;;;;;21.11;52.87;97771.94;5002015;28;20411;-78
2022/07/25 04:21:23;;;;;;;12.98;7.80;;;;;;;21.06;53.79;97763.22;5004745;28;20426;-78
2022/07/25 04:23:52;;;;;;;11.43;7.30;;;;;;;21.10;53.54;97764.81;5008645;28;20433;-79
2022/07/25 04:26:21;;;;;;;11.02;7.70;;;;;;;21.07;53.33;97762.81;5012971;28;20429;-78
2022/07/25 04:28:49;;;;;;;13.63;8.13;;;;;;;21.02;53.58;97759.63;4990630;28;20448;-78
2022/07/25 04:31:18;;;;;;;11.57;8.30;;;;;;;21.02;53.39;97756.88;5001262;28;20423;-78
2022/07/25 04:34:13;;;;;;;12.30;8.10;;;;;;;21.05;53.71;97758.88;5013137;28;20427;-79
2022/07/25 04:36:41;;;;;;;13.23;8.60;;;;;;;21.05;53.70;97753.34;5008041;28;20439;-78
2022/07/25 04:39:09;;;;;;;14.10;8.80;;;;;;;21.04;53.54;97758.09;4984158;28;20777;-79
2022/07/25 04:44:32;;;;;;;11.18;7.80;;;;;;;21.07;53.41;97756.50;5018563;28;20499;-78
2022/07/25 04:47:01;;;;;;;10.20;7.70;;;;;;;21.06;53.88;97757.69;4998810;28;20425;-79
2022/07/25 04:49:30;;;;;;;11.63;8.13;;;;;;;21.00;53.76;97751.72;5010534;28;20420;-81
2022/07/25 04:51:59;;;;;;;12.43;8.10;;;;;;;21.07;54.36;97750.97;5000843;28;20426;-81
2022/07/25 04:54:27;;;;;;;15.07;8.73;;;;;;;21.08;54.05;97761.63;4996563;28;20510;-80
2022/07/25 04:56:55;;;;;;;12.73;8.32;;;;;;;21.08;53.67;97767.16;5002717;28;20951;-81
2022/07/25 05:02:46;;;;;;;11.27;8.02;;;;;;;21.18;53.60;97746.31;4999318;28;20420;-79
2022/07/25 05:05:16;;;;;;;11.82;7.32;;;;;;;21.32;53.38;97746.44;5017314;28;20478;-81
2022/07/25 05:07:49;;;;;;;12.13;6.97;;;;;;;21.38;53.63;97753.19;5003088;28;20419;-85
2022/07/25 05:10:18;;;;;;;10.27;7.00;;;;;;;21.42;53.37;97751.25;4978033;28;20436;-87
2022/07/25 05:12:46;;;;;;;11.93;7.78;;;;;;;21.51;53.71;97736.25;4993905;28;20417;-88
2022/07/25 05:15:14;;;;;;;12.23;7.25;;;;;;;21.53;53.46;97739.44;4980002;28;20506;-87
2022/07/25 05:17:42;;;;;;;10.87;7.30;;;;;;;21.50;52.97;97729.16;5004515;28;20415;-87
2022/07/25 05:20:11;;;;;;;11.25;6.90;;;;;;;21.53;53.41;97733.91;4998168;28;20429;-86
2022/07/25 05:22:42;;;;;;;13.80;7.10;;;;;;;21.60;53.33;97733.94;4999001;28;20434;-87
2022/07/25 05:25:11;;;;;;;11.57;7.70;;;;;;;21.64;53.43;97735.53;4995316;28;20460;-86
2022/07/25 05:27:40;;;;;;;11.63;7.72;;;;;;;21.68;53.05;97730.03;4999549;28;20516;-87
2022/07/25 05:30:10;;;;;;;11.63;7.60;;;;;;;21.71;52.82;97729.25;4993280;28;20454;-87
2022/07/25 05:32:39;;;;;;;10.95;6.97;;;;;;;21.77;52.73;97726.91;4994961;28;20420;-86
2022/07/25 05:35:08;;;;;;;11.38;7.47;;;;;;;21.82;52.66;97735.59;5010378;28;20526;-87
2022/07/25 05:37:42;;;;;;;11.27;6.57;;;;;;;21.88;52.71;97738.78;5006777;28;20464;-82
2022/07/25 05:40:11;;;;;;;10.65;6.53;;;;;;;21.87;52.96;97720.59;4999200;28;20789;-86
2022/07/25 05:42:40;;;;;;;11.90;6.72;;;;;;;21.90;53.49;97731.69;4995283;28;20432;-83
2022/07/25 05:45:08;;;;;;;10.73;6.68;;;;;;;22.00;52.75;97734.84;4988884;28;20847;-85
2022/07/25 05:47:42;;;;;;;10.43;6.60;;;;;;;22.07;52.49;97732.91;4999584;28;20487;-87
2022/07/25 05:50:13;;;;;;;9.73;6.35;;;;;;;22.13;52.38;97727.81;4979893;28;20422;-85
2022/07/25 05:52:43;;;;;;;11.50;6.67;;;;;;;22.20;51.79;97731.38;4996646;28;20427;-87
2022/07/25 05:55:12;;;;;;;9.35;5.75;;;;;;;22.27;52.27;97727.84;4962893;28;20425;-86
2022/07/25 05:57:41;;;;;;;10.57;6.45;;;;;;;22.32;52.34;97727.47;4974870;28;20424;-86
2022/07/25 06:00:10;;;;;;;9.60;5.93;;;;;;;22.40;52.20;97731.03;4975464;28;20430;-87
2022/07/25 06:02:39;;;;;;;8.10;6.05;;;;;;;22.51;51.78;97723.50;4992291;28;20423;-86
2022/07/25 06:05:08;;;;;;;8.77;6.43;;;;;;;22.53;51.21;97703.72;5007267;28;20440;-87
2022/07/25 06:07:37;;;;;;;9.77;5.45;;;;;;;22.65;51.26;97714.44;5003796;28;20416;-86
2022/07/25 06:10:07;;;;;;;13.02;6.20;;;;;;;22.80;51.04;97713.25;4994629;28;20423;-87
2022/07/25 06:12:36;;;;;;;12.85;6.20;;;;;;;22.88;50.67;97716.81;4998746;28;20429;-87
2022/07/25 06:15:29;;;;;;;9.35;6.28;;;;;;;22.99;50.43;97718.38;5003130;28;20568;-87
2022/07/25 06:17:57;;;;;;;8.52;5.45;;;;;;;23.10;50.64;97714.78;4994918;28;20919;-84
2022/07/25 06:20:26;;;;;;;9.57;5.68;;;;;;;23.19;49.82;97715.97;4987308;28;20777;-86
2022/07/25 06:22:54;;;;;;;13.30;8.27;;;;;;;23.29;49.94;97716.34;4978266;28;20764;-84
2022/07/25 06:25:24;;;;;;;8.93;5.65;;;;;;;23.38;49.45;97714.72;4994164;28;20421;-85
2022/07/25 06:30:45;;;;;;;8.18;5.60;;;;;;;23.58;49.28;97714.25;4975896;28;20452;-86
2022/07/25 06:33:13;;;;;;;11.82;5.40;;;;;;;23.66;48.82;97713.88;4978691;28;20499;-86
2022/07/25 06:35:42;;;;;;;;;;;;;;;23.74;49.21;97718.19;4986328;28;20416;-86
2022/07/25 06:38:10;;;;;;;;;;;;;;;23.84;48.18;97705.47;5003039;28;20459;-85
2022/07/25 06:40:39;;;;;;;10.67;5.97;;;;;;;23.92;48.24;97707.00;4971213;28;20477;-84
2022/07/25 06:43:08;;;;;;;9.93;5.45;;;;;;;24.01;47.69;97698.22;5001525;28;20414;-86
2022/07/25 06:45:36;;;;;;;7.97;4.90;;;;;;;24.14;47.12;97713.22;5003031;28;20423;-86
2022/07/25 06:48:05;;;;;;;8.60;5.13;;;;;;;24.20;47.42;97710.81;5002109;28;20421;-86
2022/07/25 06:50:34;;;;;;;9.00;5.07;;;;;;;24.31;46.91;97706.75;4992759;28;20424;-86
2022/07/25 06:53:02;;;;;;;9.80;5.53;;;;;;;24.44;46.42;97700.75;4981645;28;20438;-86
2022/07/25 06:55:30;;;;;;;8.80;5.35;;;;;;;24.50;46.75;97696.31;4993412;28;20438;-86
2022/07/25 06:58:00;;;;;;;18.90;6.70;;;;;;;24.53;46.45;97682.41;4997643;28;20460;-87
2022/07/25 07:00:28;;;;;;;15.50;6.15;;;;;;;24.64;46.35;97684.31;5012897;28;20413;-86
2022/07/25 07:03:00;;;;;;;14.45;5.97;;;;;;;24.74;46.61;97689.00;4998233;28;20709;-86
2022/07/25 07:05:30;;;;;;;13.73;5.78;;;;;;;24.82;46.06;97684.94;5009116;28;20472;-86
2022/07/25 07:07:58;;;;;;;;;;;;;;;24.90;45.53;97680.91;5029723;28;20424;-86
2022/07/25 07:10:27;;;;;;;;;;;;;;;24.92;46.00;97681.25;5016468;28;20331;-86
2022/07/25 07:13:08;;;;;;;11.60;5.70;;;;;;;24.98;45.64;97682.41;4997863;28;20792;-86
2022/07/25 07:15:37;;;;;;;13.60;5.63;;;;;;;25.07;45.60;97685.50;5006821;28;20434;-86
2022/07/25 07:18:06;;;;;;;9.77;5.45;;;;;;;25.18;45.12;97679.06;5030341;28;20432;-86
2022/07/25 07:20:34;;;;;;;20.73;5.88;;;;;;;25.25;45.07;97677.00;5000832;28;20425;-87
2022/07/25 07:23:03;;;;;;;14.20;5.03;;;;;;;25.35;44.59;97678.06;4999319;28;20448;-85
2022/07/25 07:25:33;;;;;;;24.33;5.43;;;;;;;25.43;44.54;97667.66;5029271;28;20429;-87
2022/07/25 07:28:28;;;;;;;9.98;4.60;;;;;;;25.53;43.89;97667.53;5013264;28;20460;-87
2022/07/25 07:30:56;;;;;;;13.88;5.45;;;;;;;25.66;43.61;97676.09;5014095;28;20780;-86
2022/07/25 07:33:43;;;;;;;10.70;5.50;;;;;;;25.71;43.82;97678.41;4997113;28;20428;-86
2022/07/25 07:36:13;;;;;;;30.45;6.63;;;;;;;25.80;43.35;97675.16;5010634;28;20524;-86
2022/07/25 07:38:43;;;;;;;46.95;7.63;;;;;;;25.89;42.79;97672.66;4998030;28;20413;-86
2022/07/25 07:41:15;;;;;;;10.95;5.63;;;;;;;25.97;42.54;97679.69;5013667;28;20412;-87
2022/07/25 07:43:44;;;;;;;;;;;;;;;26.10;42.18;97677.13;4995845;28;20432;-87
2022/07/25 07:46:13;;;;;;;;;;;;;;;26.19;41.82;97669.00;4994632;28;19921;-86
2022/07/25 07:48:41;;;;;;;;;;;;;;;26.27;41.64;97670.50;4995926;28;20344;-86
2022/07/25 07:51:12;;;;;;;;;;;;;;;26.35;41.48;97666.38;4998912;28;19921;-86
2022/07/25 07:56:26;;;;;;;;;;;;;;;26.50;40.50;97650.25;5010714;28;20467;-85
2022/07/25 07:58:56;;;;;;;;;;;;;;;26.59;40.62;97653.28;4996402;28;19945;-86
2022/07/25 08:01:25;;;;;;;;;;;;;;;26.66;40.91;97646.00;5015901;28;20355;-89
2022/07/25 08:03:55;;;;;;;;;;;;;;;26.66;40.76;97646.78;5003969;28;19929;-89
2022/07/25 08:06:23;;;;;;;;;;;;;;;26.61;41.16;97647.28;5017728;28;19926;-87
2022/07/25 08:08:51;;;;;;;;;;;;;;;26.69;39.45;97640.38;4998528;28;20413;-88
2022/07/25 08:11:20;;;;;;;;;;;;;;;26.75;39.75;97641.47;5001267;28;19921;-87
2022/07/25 08:13:48;;;;;;;;;;;;;;;26.85;39.00;97642.50;4999500;28;19971;-89
2022/07/25 08:16:20;;;;;;;;;;;;;;;27.07;39.29;97642.91;5000355;28;19921;-89
2022/07/25 08:18:48;;;;;;;;;;;;;;;27.20;39.26;97638.25;5029330;28;19921;-88
2022/07/25 08:21:16;;;;;;;;;;;;;;;27.32;38.46;97632.00;4998958;28;19968;-84
2022/07/25 08:23:46;;;;;;;;;;;;;;;27.40;38.44;97622.31;5010075;28;19930;-85
2022/07/25 08:26:14;;;;;;;;;;;;;;;27.46;38.78;97622.56;5029271;28;20424;-84
2022/07/25 08:28:42;;;;;;;;;;;;;;;27.56;38.18;97615.19;5012642;28;19991;-85
2022/07/25 08:31:13;;;;;;;;;;;;;;;27.65;38.25;97618.19;5013578;28;19967;-85
2022/07/25 08:33:42;;;;;;;;;;;;;;;27.73;38.14;97622.41;5012603;28;19933;-84
2022/07/25 08:36:12;;;;;;;;;;;;;;;27.74;38.13;97615.63;5017854;28;19928;-84
2022/07/25 08:38:40;;;;;;;;;;;;;;;27.85;37.34;97613.38;4999311;28;19923;-84
2022/07/25 08:41:33;;;;;;;;;;;;;;;27.96;36.23;97613.13;4998116;28;19929;-84
2022/07/25 08:44:26;;;;;;;;;;;;;;;27.97;36.42;97614.72;5009374;28;19952;-85
2022/07/25 08:46:54;;;;;;;;;;;;;;;28.06;35.75;97608.50;5013453;28;20379;-85
2022/07/25 08:49:23;;;;;;;;;;;;;;;28.15;35.75;97609.47;4996941;28;19936;-85
2022/07/25 08:51:51;;;;;;;;;;;;;;;28.23;36.45;97609.28;5030462;28;20467;-84
2022/07/25 08:54:19;;;;;;;;;;;;;;;28.24;35.88;97608.09;5012875;28;19972;-84
2022/07/25 08:56:47;;;;;;;;;;;;;;;28.25;36.79;97612.44;4995574;28;19921;-84
2022/07/25 08:59:15;;;;;;;;;;;;;;;28.30;36.03;97607.13;5012784;28;19924;-84
2022/07/25 09:01:43;;;;;;;7.72;4.72;;;;;;;28.35;35.30;97603.06;4995500;28;20438;-84
2022/07/25 09:04:12;;;;;;;38.55;7.32;;;;;;;28.42;35.06;97591.69;5011156;28;20771;-85
2022/07/25 09:06:50;;;;;;;35.72;6.95;;;;;;;28.47;35.92;97591.16;5011095;28;20443;-84
2022/07/25 09:45:04;;;;;;;;;;;;;;;29.19;34.84;97548.06;5011661;28;19921;-81
2022/07/25 09:47:34;;;;;;;17.93;6.30;;;;;;;29.21;34.64;97545.63;4988758;28;20448;-84
2022/07/25 09:50:09;;;;;;;12.35;5.47;;;;;;;29.21;34.70;97546.41;5011584;28;20416;-84
2022/07/25 09:52:39;;;;;;;11.27;5.43;;;;;;;29.35;34.63;97541.59;4986276;28;20425;-84
2022/07/25 09:55:15;;;;;;;9.93;5.60;;;;;;;29.41;34.04;97537.03;5014146;28;20437;-84
2022/07/25 09:57:48;;;;;;;23.70;8.15;;;;;;;29.46;33.99;97534.47;5001397;28;20424;-84
2022/07/25 10:00:22;;;;;;;39.63;9.63;;;;;;;29.54;33.87;97532.25;4974914;28;20791;-84
2022/07/25 10:03:01;;;;;;;19.95;6.80;;;;;;;29.61;34.21;97532.03;5010101;28;20413;-84
2022/07/25 10:05:38;;;;;;;88.00;12.57;;;;;;;29.59;34.82;97528.91;4989694;28;20412;-83
2022/07/25 10:08:07;;;;;;;41.93;8.07;;;;;;;29.59;34.19;97522.50;5010515;28;20416;-84
2022/07/25 10:10:40;;;;;;;25.80;6.78;;;;;;;29.59;34.21;97526.09;4973464;28;20415;-84
2022/07/25 10:13:14;;;;;;;10.80;5.70;;;;;;;29.63;34.27;97523.19;5006948;28;20417;-82
2022/07/25 10:15:45;;;;;;;;;;;;;;;29.57;33.44;97519.41;4997978;28;20445;-83
2022/07/25 10:18:17;;;;;;;;;;;;;;;29.59;34.42;97522.50;4999099;28;20380;-83
2022/07/25 10:20:47;;;;;;;;;;;;;;;29.69;33.62;97510.97;5000915;28;19922;-83
2022/07/25 10:23:53;;;;;;;;;;;;;;;29.78;33.97;97506.72;5011612;28;20372;-87
2022/07/25 10:26:31;;;;;;;;;;;;;;;29.85;33.12;97503.69;4992231;28;19910;-86
2022/07/25 10:29:01;;;;;;;;;;;;;;;29.85;33.42;97512.09;5015760;28;19921;-86
2022/07/25 10:31:34;;;;;;;;;;;;;;;29.82;33.47;97507.38;5003700;28;19922;-87
2022/07/25 10:34:05;;;;;;;;;;;;;;;29.84;33.96;97500.09;4996065;28;20012;-86
2022/07/25 10:36:42;;;;;;;;;;;;;;;29.88;33.57;97500.78;4984248;28;20260;-89
2022/07/25 10:39:12;;;;;;;;;;;;;;;29.95;33.61;97510.97;4998118;28;20349;-89
2022/07/25 10:41:49;;;;;;;;;;;;;;;29.96;33.17;97498.50;4994101;28;19929;-84
2022/07/25 10:44:19;;;;;;;;;;;;;;;30.05;33.09;97487.41;4994248;28;19921;-87
2022/07/25 10:46:48;;;;;;;;;;;;;;;30.18;32.84;97476.97;4997516;28;19921;-87
2022/07/25 10:49:17;;;;;;;;;;;;;;;30.23;33.20;97472.81;5009389;28;19927;-88
2022/07/25 10:51:52;;;;;;;;;;;;;;;30.26;33.29;97472.69;5031543;28;19925;-87
2022/07/25 10:54:22;;;;;;;;;;;;;;;30.33;33.21;97477.25;5010931;28;19920;-87
2022/07/25 10:56:51;;;;;;;;;;;;;;;30.34;33.93;97464.03;4983578;28;20004;-87
2022/07/25 10:59:31;;;;;;;;;;;;;;;30.39;33.21;97472.63;4982356;28;19921;-88
2022/07/25 11:02:22;;;;;;;;;;;;;;;30.44;32.80;97465.69;5008923;28;19929;-88
2022/07/25 11:05:01;;;;;;;;;;;;;;;30.48;32.03;97463.53;5000009;28;19921;-88
2022/07/25 11:07:34;;;;;;;;;;;;;;;30.51;32.03;97465.41;4990800;28;19926;-88
2022/07/25 11:10:05;;;;;;;;;;;;;;;30.40;31.14;97467.81;4999615;28;19960;-88
2022/07/25 11:12:33;;;;;;;;;;;;;;;30.47;32.44;97462.75;4991261;28;20107;-87
2022/07/25 11:15:28;;;;;;;;;;;;;;;30.51;31.52;97462.59;4979148;28;19925;-82
2022/07/25 11:18:00;;;;;;;;;;;;;;;30.55;32.26;97459.69;5010328;28;19929;-86
2022/07/25 11:20:28;;;;;;;;;;;;;;;30.60;30.78;97457.06;4985737;28;20255;-87
2022/07/25 11:22:57;;;;;;;;;;;;;;;30.54;30.80;97450.50;4979924;28;19925;-88
2022/07/25 11:25:28;;;;;;;;;;;;;;;30.59;31.34;97452.72;4987589;28;19945;-89
2022/07/25 11:28:21;;;;;;;;;;;;;;;30.58;30.93;97451.16;5000494;28;19928;-87
2022/07/25 11:31:02;;;;;;;;;;;;;;;30.61;31.52;97438.22;4994732;28;19953;-88
2022/07/25 11:33:32;;;;;;;;;;;;;;;30.53;31.96;97440.53;4997200;28;19921;-88
2022/07/25 11:36:00;;;;;;;;;;;;;;;30.45;32.07;97425.19;4999980;28;19929;-87
2022/07/25 11:38:28;;;;;;;;;;;;;;;30.46;32.05;97423.94;5008534;28;19921;-85
2022/07/25 11:40:57;;;;;;;;;;;;;;;30.46;32.16;97427.53;4987461;28;19935;-88
2022/07/25 11:43:25;;;;;;;;;;;;;;;30.48;32.14;97418.69;4994551;28;19949;-87
2022/07/25 11:46:18;;;;;;;;;;;;;;;30.68;31.73;97416.34;4980552;28;19922;-88
2022/07/25 11:48:48;;;;;;;;;;;;;;;30.84;30.42;97400.53;4983287;28;19944;-87
2022/07/25 11:51:17;;;;;;;;;;;;;;;30.88;29.03;97401.19;4980828;28;19967;-86
2022/07/25 11:53:46;;;;;;;;;;;;;;;30.96;29.29;97396.88;4998891;28;19948;-88
2022/07/25 11:56:15;;;;;;;;;;;;;;;30.96;29.68;97397.66;4987523;28;19935;-84
2022/07/25 11:59:04;;;;;;;;;;;;;;;31.00;29.99;97400.31;5017300;28;19953;-87
2022/07/25 12:01:38;;;;;;;;;;;;;;;31.03;29.62;97397.38;4995654;28;19922;-87
2022/07/25 12:04:12;;;;;;;;;;;;;;;31.03;29.14;97390.97;4997182;28;19921;-87
2022/07/25 12:06:41;;;;;;;;;;;;;;;31.06;28.35;97390.06;4999841;28;19963;-87
2022/07/25 12:09:13;;;;;;;;;;;;;;;31.07;29.11;97396.47;4995115;28;19928;-89
2022/07/25 12:11:46;;;;;;;;;;;;;;;31.00;28.93;97389.09;4994731;28;19952;-87
2022/07/25 12:14:14;;;;;;;;;;;;;;;30.96;29.29;97392.06;5013574;28;19921;-87
2022/07/25 12:16:43;;;;;;;;;;;;;;;31.09;29.49;97394.75;4996689;28;19921;-86
2022/07/25 12:19:19;;;;;;;;;;;;;;;31.08;30.43;97387.56;4999927;28;19921;-87
2022/07/25 12:21:48;;;;;;;;;;;;;;;31.04;29.60;97370.09;5000382;28;20341;-88
2022/07/25 12:24:18;;;;;;;;;;;;;;;31.15;29.04;97367.63;5009276;28;19925;-87
2022/07/25 12:26:46;;;;;;;;;;;;;;;31.19;29.76;97370.31;5007035;28;19928;-87
2022/07/25 12:29:14;;;;;;;;;;;;;;;31.28;29.83;97373.97;5018643;28;20403;-86
2022/07/25 12:31:45;;;;;;;;;;;;;;;31.30;29.55;97377.06;5008895;28;19922;-86
2022/07/25 12:34:13;;;;;;;;;;;;;;;31.35;28.81;97372.09;5019475;28;19922;-88
2022/07/25 12:36:43;;;;;;;;;;;;;;;31.47;28.84;97362.78;5016837;28;19909;-87
2022/07/25 12:39:12;;;;;;;;;;;;;;;31.36;29.81;97368.06;5020658;28;19921;-87
2022/07/25 12:41:46;;;;;;;;;;;;;;;31.41;29.49;97353.41;5021459;28;19932;-85
2022/07/25 12:44:17;;;;;;;;;;;;;;;31.31;29.15;97366.63;5015858;28;19914;-87
2022/07/25 12:46:45;;;;;;;;;;;;;;;31.56;29.23;97355.16;5005389;28;19925;-87
2022/07/25 12:49:16;;;;;;;;;;;;;;;31.51;28.91;97355.00;5002478;28;19928;-88
2022/07/25 12:51:46;;;;;;;;;;;;;;;31.64;29.14;97338.81;5004036;28;20279;-86
2022/07/25 12:54:17;;;;;;;;;;;;;;;31.47;28.81;97340.31;5004035;28;19949;-86
2022/07/25 12:56:49;;;;;;;;;;;;;;;31.41;29.16;97342.97;5027203;28;19929;-87
2022/07/25 12:59:17;;;;;;;;;;;;;;;31.36;29.99;97337.94;5015545;28;20340;-88
2022/07/25 13:01:48;;;;;;;;;;;;;;;31.33;30.24;97318.47;5011073;28;19925;-86
2022/07/25 13:04:16;;;;;;;;;;;;;;;31.22;30.03;97333.69;5011115;28;19922;-87
2022/07/25 13:06:46;;;;;;;;;;;;;;;31.39;29.67;97333.44;5000828;28;19929;-86
2022/07/25 13:09:15;;;;;;;;;;;;;;;31.36;29.76;97329.53;4991628;28;19921;-86
2022/07/25 13:11:43;;;;;;;;;;;;;;;31.47;29.20;97312.25;5009843;28;20277;-88
2022/07/25 13:14:12;;;;;;;;;;;;;;;31.53;29.89;97321.59;4997233;28;19921;-83
2022/07/25 13:16:41;;;;;;;;;;;;;;;31.62;28.21;97324.44;5011167;28;19944;-85
2022/07/25 13:19:09;;;;;;;;;;;;;;;31.86;26.29;97318.25;5015290;28;19929;-87
2022/07/25 13:21:41;;;;;;;;;;;;;;;31.85;27.43;97313.84;4999009;28;20367;-88
2022/07/25 13:24:11;;;;;;;;;;;;;;;31.91;25.70;97323.25;4999113;28;19921;-88
2022/07/25 13:26:40;;;;;;;;;;;;;;;31.97;25.45;97310.13;5000124;28;19921;-88